Terminal Aerodrome Forecast
Issued by NWS

Home | Current Version | Previous Version | Graphics & Text | Print | Product List | Glossary On
Versions: 1 2 3 4 5 6 7 8 9 10 11 12 13
000
FTUS43 KIWX 281100 RRA
TAFSBN
TAF
KSBN 281141Z 2812/2912 VRB03KT P6SM BKN250
      TEMPO 2812/2813 5SM BR
     FM281600 35004KT P6SM SCT250
     FM291000 00000KT 3SM BR SKC=

USA.gov is the U.S. government's official web portal to all federal, state and local government web resources and services.